sensor_id;sensor_type;location;lat;lon;timestamp;temperature;humidity
68051;DHT22;54839;51.364;7.246;2023-02-18T00:00:10;10.30;99.90
68051;DHT22;54839;51.364;7.246;2023-02-18T00:02:36;10.30;99.90
68051;DHT22;54839;51.364;7.246;2023-02-18T00:05:01;10.20;99.90
68051;DHT22;54839;51.364;7.246;2023-02-18T00:07:27;10.20;99.90
68051;DHT22;54839;51.364;7.246;2023-02-18T00:09:52;10.20;99.90
68051;DHT22;54839;51.364;7.246;2023-02-18T00:12:18;10.10;99.90
68051;DHT22;54839;51.364;7.246;2023-02-18T00:14:43;10.20;99.90
68051;DHT22;54839;51.364;7.246;2023-02-18T00:17:09;10.10;99.90
68051;DHT22;54839;51.364;7.246;2023-02-18T00:19:34;10.10;99.90
68051;DHT22;54839;51.364;7.246;2023-02-18T00:22:00;10.00;99.90
68051;DHT22;54839;51.364;7.246;2023-02-18T00:24:25;10.10;99.90
68051;DHT22;54839;51.364;7.246;2023-02-18T00:26:51;10.00;99.90
68051;DHT22;54839;51.364;7.246;2023-02-18T00:29:17;10.00;99.90
68051;DHT22;54839;51.364;7.246;2023-02-18T00:31:43;10.00;99.90
68051;DHT22;54839;51.364;7.246;2023-02-18T00:34:09;9.90;99.90
68051;DHT22;54839;51.364;7.246;2023-02-18T00:36:35;10.00;99.90
68051;DHT22;54839;51.364;7.246;2023-02-18T00:39:02;10.10;99.90
68051;DHT22;54839;51.364;7.246;2023-02-18T00:41:29;9.90;99.90
68051;DHT22;54839;51.364;7.246;2023-02-18T00:43:55;10.00;99.90
68051;DHT22;54839;51.364;7.246;2023-02-18T00:46:22;10.00;99.90
68051;DHT22;54839;51.364;7.246;2023-02-18T00:48:48;9.90;99.90
68051;DHT22;54839;51.364;7.246;2023-02-18T00:51:13;9.90;99.90
68051;DHT22;54839;51.364;7.246;2023-02-18T00:53:39;9.90;99.90
68051;DHT22;54839;51.364;7.246;2023-02-18T00:56:05;9.90;99.90
68051;DHT22;54839;51.364;7.246;2023-02-18T00:58:32;9.90;99.90
68051;DHT22;54839;51.364;7.246;2023-02-18T01:00:58;9.90;99.90
68051;DHT22;54839;51.364;7.246;2023-02-18T01:03:24;9.90;99.90
68051;DHT22;54839;51.364;7.246;2023-02-18T01:05:51;9.80;99.90
68051;DHT22;54839;51.364;7.246;2023-02-18T01:08:18;9.80;99.90
68051;DHT22;54839;51.364;7.246;2023-02-18T01:10:46;9.80;99.90
68051;DHT22;54839;51.364;7.246;2023-02-18T01:13:12;9.70;99.90
68051;DHT22;54839;51.364;7.246;2023-02-18T01:15:39;9.70;99.90
68051;DHT22;54839;51.364;7.246;2023-02-18T01:18:05;9.70;99.90
68051;DHT22;54839;51.364;7.246;2023-02-18T01:20:33;9.70;99.90
68051;DHT22;54839;51.364;7.246;2023-02-18T01:22:59;9.80;99.90
68051;DHT22;54839;51.364;7.246;2023-02-18T01:25:24;9.70;99.90
68051;DHT22;54839;51.364;7.246;2023-02-18T01:27:50;9.70;99.90
68051;DHT22;54839;51.364;7.246;2023-02-18T01:30:16;9.70;99.90
68051;DHT22;54839;51.364;7.246;2023-02-18T01:32:42;9.70;99.90
68051;DHT22;54839;51.364;7.246;2023-02-18T01:35:11;9.80;99.90
68051;DHT22;54839;51.364;7.246;2023-02-18T01:37:37;9.80;99.90
68051;DHT22;54839;51.364;7.246;2023-02-18T01:40:03;9.70;99.90
68051;DHT22;54839;51.364;7.246;2023-02-18T01:42:29;9.70;99.90
68051;DHT22;54839;51.364;7.246;2023-02-18T01:47:52;9.80;99.90
68051;DHT22;54839;51.364;7.246;2023-02-18T01:50:18;9.80;99.90
68051;DHT22;54839;51.364;7.246;2023-02-18T01:52:43;9.80;99.90
68051;DHT22;54839;51.364;7.246;2023-02-18T01:55:09;9.80;99.90
68051;DHT22;54839;51.364;7.246;2023-02-18T01:57:36;9.80;99.90
68051;DHT22;54839;51.364;7.246;2023-02-18T02:00:15;9.90;99.90
68051;DHT22;54839;51.364;7.246;2023-02-18T02:02:43;9.80;99.90
68051;DHT22;54839;51.364;7.246;2023-02-18T02:05:10;9.90;99.90
68051;DHT22;54839;51.364;7.246;2023-02-18T02:07:37;9.80;99.90
68051;DHT22;54839;51.364;7.246;2023-02-18T02:10:04;9.80;99.90
68051;DHT22;54839;51.364;7.246;2023-02-18T02:15:51;9.80;99.90
68051;DHT22;54839;51.364;7.246;2023-02-18T02:21:29;9.90;99.90
68051;DHT22;54839;51.364;7.246;2023-02-18T02:35:22;9.90;99.90
68051;DHT22;54839;51.364;7.246;2023-02-18T02:38:05;10.00;99.90
68051;DHT22;54839;51.364;7.246;2023-02-18T02:40:54;10.00;99.90
68051;DHT22;54839;51.364;7.246;2023-02-18T02:43:38;10.00;99.90
68051;DHT22;54839;51.364;7.246;2023-02-18T02:46:27;9.90;99.90
68051;DHT22;54839;51.364;7.246;2023-02-18T02:51:32;9.90;99.90
68051;DHT22;54839;51.364;7.246;2023-02-18T02:54:21;9.80;99.90
68051;DHT22;54839;51.364;7.246;2023-02-18T02:56:47;9.90;99.90
68051;DHT22;54839;51.364;7.246;2023-02-18T02:59:17;9.80;99.90
68051;DHT22;54839;51.364;7.246;2023-02-18T03:02:17;9.80;99.90
68051;DHT22;54839;51.364;7.246;2023-02-18T03:10:42;9.80;99.90
68051;DHT22;54839;51.364;7.246;2023-02-18T03:18:42;9.80;99.90
68051;DHT22;54839;51.364;7.246;2023-02-18T03:21:14;9.80;99.90
68051;DHT22;54839;51.364;7.246;2023-02-18T03:23:51;9.80;99.90
68051;DHT22;54839;51.364;7.246;2023-02-18T03:26:18;9.70;99.90
68051;DHT22;54839;51.364;7.246;2023-02-18T03:28:48;9.70;99.90
68051;DHT22;54839;51.364;7.246;2023-02-18T03:31:18;9.60;99.90
68051;DHT22;54839;51.364;7.246;2023-02-18T03:33:51;9.60;99.90
68051;DHT22;54839;51.364;7.246;2023-02-18T03:36:20;9.60;99.90
68051;DHT22;54839;51.364;7.246;2023-02-18T03:39:00;9.60;99.90
68051;DHT22;54839;51.364;7.246;2023-02-18T03:41:27;9.50;99.90
68051;DHT22;54839;51.364;7.246;2023-02-18T03:43:58;9.60;99.90
68051;DHT22;54839;51.364;7.246;2023-02-18T03:46:26;9.60;99.90
68051;DHT22;54839;51.364;7.246;2023-02-18T03:48:52;9.60;99.90
68051;DHT22;54839;51.364;7.246;2023-02-18T03:51:18;9.50;99.90
68051;DHT22;54839;51.364;7.246;2023-02-18T03:53:44;9.60;99.90
68051;DHT22;54839;51.364;7.246;2023-02-18T03:56:10;9.50;99.90
68051;DHT22;54839;51.364;7.246;2023-02-18T03:58:35;9.60;99.90
68051;DHT22;54839;51.364;7.246;2023-02-18T04:01:01;9.60;99.90
68051;DHT22;54839;51.364;7.246;2023-02-18T04:03:26;9.50;99.90
68051;DHT22;54839;51.364;7.246;2023-02-18T04:05:52;9.50;99.90
68051;DHT22;54839;51.364;7.246;2023-02-18T04:08:17;9.50;99.90
68051;DHT22;54839;51.364;7.246;2023-02-18T04:10:43;9.60;99.90
68051;DHT22;54839;51.364;7.246;2023-02-18T04:13:08;9.50;99.90
68051;DHT22;54839;51.364;7.246;2023-02-18T04:15:34;9.50;99.90
68051;DHT22;54839;51.364;7.246;2023-02-18T04:17:59;9.60;99.90
68051;DHT22;54839;51.364;7.246;2023-02-18T04:20:25;9.60;99.90
68051;DHT22;54839;51.364;7.246;2023-02-18T04:22:50;9.60;99.90
68051;DHT22;54839;51.364;7.246;2023-02-18T04:25:16;9.50;99.90
68051;DHT22;54839;51.364;7.246;2023-02-18T04:27:41;9.60;99.90
68051;DHT22;54839;51.364;7.246;2023-02-18T04:30:07;9.60;99.90
68051;DHT22;54839;51.364;7.246;2023-02-18T04:32:33;9.60;99.90
68051;DHT22;54839;51.364;7.246;2023-02-18T04:34:58;9.50;99.90
68051;DHT22;54839;51.364;7.246;2023-02-18T04:37:24;9.60;99.90
68051;DHT22;54839;51.364;7.246;2023-02-18T04:39:49;9.50;99.90
68051;DHT22;54839;51.364;7.246;2023-02-18T04:42:15;9.50;99.90
68051;DHT22;54839;51.364;7.246;2023-02-18T04:44:41;9.50;99.90
68051;DHT22;54839;51.364;7.246;2023-02-18T04:47:06;9.60;99.90
68051;DHT22;54839;51.364;7.246;2023-02-18T04:49:32;9.60;99.90
68051;DHT22;54839;51.364;7.246;2023-02-18T04:51:58;9.60;99.90
68051;DHT22;54839;51.364;7.246;2023-02-18T04:54:24;9.50;99.90
68051;DHT22;54839;51.364;7.246;2023-02-18T04:56:49;9.50;99.90
68051;DHT22;54839;51.364;7.246;2023-02-18T04:59:15;9.50;99.90
68051;DHT22;54839;51.364;7.246;2023-02-18T05:01:41;9.50;99.90
68051;DHT22;54839;51.364;7.246;2023-02-18T05:04:07;9.50;99.90
68051;DHT22;54839;51.364;7.246;2023-02-18T05:06:32;9.50;99.90
68051;DHT22;54839;51.364;7.246;2023-02-18T05:08:58;9.50;99.90
68051;DHT22;54839;51.364;7.246;2023-02-18T05:11:24;9.50;99.90
68051;DHT22;54839;51.364;7.246;2023-02-18T05:13:49;9.50;99.90
68051;DHT22;54839;51.364;7.246;2023-02-18T05:16:15;9.50;99.90
68051;DHT22;54839;51.364;7.246;2023-02-18T05:18:40;9.50;99.90
68051;DHT22;54839;51.364;7.246;2023-02-18T05:21:06;9.50;99.90
68051;DHT22;54839;51.364;7.246;2023-02-18T05:23:32;9.40;99.90
68051;DHT22;54839;51.364;7.246;2023-02-18T05:25:57;9.50;99.90
68051;DHT22;54839;51.364;7.246;2023-02-18T05:28:24;9.50;99.90
68051;DHT22;54839;51.364;7.246;2023-02-18T05:30:50;9.50;99.90
68051;DHT22;54839;51.364;7.246;2023-02-18T05:33:15;9.40;99.90
68051;DHT22;54839;51.364;7.246;2023-02-18T05:35:41;9.50;99.90
68051;DHT22;54839;51.364;7.246;2023-02-18T05:38:06;9.40;99.90
68051;DHT22;54839;51.364;7.246;2023-02-18T05:40:32;9.40;99.90
68051;DHT22;54839;51.364;7.246;2023-02-18T05:42:57;9.40;99.90
68051;DHT22;54839;51.364;7.246;2023-02-18T05:45:23;9.40;99.90
68051;DHT22;54839;51.364;7.246;2023-02-18T05:47:48;9.40;99.90
68051;DHT22;54839;51.364;7.246;2023-02-18T05:50:14;9.40;99.90
68051;DHT22;54839;51.364;7.246;2023-02-18T05:52:40;9.40;99.90
68051;DHT22;54839;51.364;7.246;2023-02-18T05:55:05;9.40;99.90
68051;DHT22;54839;51.364;7.246;2023-02-18T05:57:31;9.40;99.90
68051;DHT22;54839;51.364;7.246;2023-02-18T05:59:56;9.40;99.90
68051;DHT22;54839;51.364;7.246;2023-02-18T06:02:22;9.30;99.90
68051;DHT22;54839;51.364;7.246;2023-02-18T06:04:48;9.30;99.90
68051;DHT22;54839;51.364;7.246;2023-02-18T06:07:13;9.30;99.90
68051;DHT22;54839;51.364;7.246;2023-02-18T06:09:39;9.30;99.90
68051;DHT22;54839;51.364;7.246;2023-02-18T06:12:04;9.30;99.90
68051;DHT22;54839;51.364;7.246;2023-02-18T06:14:30;9.40;99.90
68051;DHT22;54839;51.364;7.246;2023-02-18T06:16:56;9.30;99.90
68051;DHT22;54839;51.364;7.246;2023-02-18T06:19:21;9.30;99.90
68051;DHT22;54839;51.364;7.246;2023-02-18T06:21:47;9.20;99.90
68051;DHT22;54839;51.364;7.246;2023-02-18T06:24:12;9.30;99.90
68051;DHT22;54839;51.364;7.246;2023-02-18T06:26:38;9.30;99.90
68051;DHT22;54839;51.364;7.246;2023-02-18T06:29:03;9.30;99.90
68051;DHT22;54839;51.364;7.246;2023-02-18T06:31:29;9.30;99.90
68051;DHT22;54839;51.364;7.246;2023-02-18T06:33:55;9.40;99.90
68051;DHT22;54839;51.364;7.246;2023-02-18T06:36:20;9.20;99.90
68051;DHT22;54839;51.364;7.246;2023-02-18T06:38:46;9.30;99.90
68051;DHT22;54839;51.364;7.246;2023-02-18T06:41:12;9.20;99.90
68051;DHT22;54839;51.364;7.246;2023-02-18T06:43:38;9.20;99.90
68051;DHT22;54839;51.364;7.246;2023-02-18T06:46:04;9.20;99.90
68051;DHT22;54839;51.364;7.246;2023-02-18T06:48:31;9.20;99.90
68051;DHT22;54839;51.364;7.246;2023-02-18T06:50:57;9.20;99.90
68051;DHT22;54839;51.364;7.246;2023-02-18T06:53:23;9.20;99.90
68051;DHT22;54839;51.364;7.246;2023-02-18T06:55:48;9.20;99.90
68051;DHT22;54839;51.364;7.246;2023-02-18T06:58:14;9.20;99.90
68051;DHT22;54839;51.364;7.246;2023-02-18T07:00:41;9.20;99.90
68051;DHT22;54839;51.364;7.246;2023-02-18T07:03:07;9.20;99.90
68051;DHT22;54839;51.364;7.246;2023-02-18T07:05:33;9.30;99.90
68051;DHT22;54839;51.364;7.246;2023-02-18T07:07:58;9.20;99.90
68051;DHT22;54839;51.364;7.246;2023-02-18T07:10:24;9.20;99.90
68051;DHT22;54839;51.364;7.246;2023-02-18T07:12:50;9.20;99.90
68051;DHT22;54839;51.364;7.246;2023-02-18T07:15:15;9.30;99.90
68051;DHT22;54839;51.364;7.246;2023-02-18T07:17:41;9.20;99.90
68051;DHT22;54839;51.364;7.246;2023-02-18T07:20:07;9.20;99.90
68051;DHT22;54839;51.364;7.246;2023-02-18T07:22:33;9.20;99.90
68051;DHT22;54839;51.364;7.246;2023-02-18T07:24:59;9.20;99.90
68051;DHT22;54839;51.364;7.246;2023-02-18T07:27:25;9.20;99.90
68051;DHT22;54839;51.364;7.246;2023-02-18T07:29:50;9.20;99.90
68051;DHT22;54839;51.364;7.246;2023-02-18T07:32:17;9.20;99.90
68051;DHT22;54839;51.364;7.246;2023-02-18T07:34:43;9.10;99.90
68051;DHT22;54839;51.364;7.246;2023-02-18T07:37:09;9.20;99.90
68051;DHT22;54839;51.364;7.246;2023-02-18T07:39:35;9.20;99.90
68051;DHT22;54839;51.364;7.246;2023-02-18T07:42:03;9.10;99.90
68051;DHT22;54839;51.364;7.246;2023-02-18T07:44:29;9.30;99.90
68051;DHT22;54839;51.364;7.246;2023-02-18T07:46:55;9.10;99.90
68051;DHT22;54839;51.364;7.246;2023-02-18T07:49:21;9.10;99.90
68051;DHT22;54839;51.364;7.246;2023-02-18T07:51:47;9.20;99.90
68051;DHT22;54839;51.364;7.246;2023-02-18T07:54:13;9.20;99.90
68051;DHT22;54839;51.364;7.246;2023-02-18T07:56:39;9.20;99.90
68051;DHT22;54839;51.364;7.246;2023-02-18T07:59:05;9.30;99.90
68051;DHT22;54839;51.364;7.246;2023-02-18T08:01:31;9.30;99.90
68051;DHT22;54839;51.364;7.246;2023-02-18T08:03:56;9.20;99.90
68051;DHT22;54839;51.364;7.246;2023-02-18T08:06:33;9.20;99.90
68051;DHT22;54839;51.364;7.246;2023-02-18T08:08:59;9.20;99.90
68051;DHT22;54839;51.364;7.246;2023-02-18T08:11:25;9.20;99.90
68051;DHT22;54839;51.364;7.246;2023-02-18T08:13:50;9.20;99.90
68051;DHT22;54839;51.364;7.246;2023-02-18T08:16:17;9.20;99.90
68051;DHT22;54839;51.364;7.246;2023-02-18T08:18:43;9.20;99.90
68051;DHT22;54839;51.364;7.246;2023-02-18T08:21:09;9.10;99.90
68051;DHT22;54839;51.364;7.246;2023-02-18T08:23:34;9.10;99.90
68051;DHT22;54839;51.364;7.246;2023-02-18T08:26:00;9.00;99.90
68051;DHT22;54839;51.364;7.246;2023-02-18T08:28:25;9.10;99.90
68051;DHT22;54839;51.364;7.246;2023-02-18T08:30:52;8.90;99.90
68051;DHT22;54839;51.364;7.246;2023-02-18T08:33:19;9.00;99.90
68051;DHT22;54839;51.364;7.246;2023-02-18T08:35:46;9.00;99.90
68051;DHT22;54839;51.364;7.246;2023-02-18T08:38:11;9.00;99.90
68051;DHT22;54839;51.364;7.246;2023-02-18T08:40:37;9.00;99.90
68051;DHT22;54839;51.364;7.246;2023-02-18T08:43:03;8.90;99.90
68051;DHT22;54839;51.364;7.246;2023-02-18T08:45:28;8.80;99.90
68051;DHT22;54839;51.364;7.246;2023-02-18T08:47:54;8.80;99.90
68051;DHT22;54839;51.364;7.246;2023-02-18T08:50:20;8.80;99.90
68051;DHT22;54839;51.364;7.246;2023-02-18T08:52:50;8.80;99.90
68051;DHT22;54839;51.364;7.246;2023-02-18T08:55:16;8.80;99.90
68051;DHT22;54839;51.364;7.246;2023-02-18T08:57:45;8.60;99.90
68051;DHT22;54839;51.364;7.246;2023-02-18T09:00:11;8.70;99.90
68051;DHT22;54839;51.364;7.246;2023-02-18T09:02:38;8.80;99.90
68051;DHT22;54839;51.364;7.246;2023-02-18T09:05:04;8.70;99.90
68051;DHT22;54839;51.364;7.246;2023-02-18T09:07:30;8.80;99.90
68051;DHT22;54839;51.364;7.246;2023-02-18T09:09:55;8.80;99.90
68051;DHT22;54839;51.364;7.246;2023-02-18T09:12:21;8.80;99.90
68051;DHT22;54839;51.364;7.246;2023-02-18T09:14:47;8.80;99.90
68051;DHT22;54839;51.364;7.246;2023-02-18T09:17:12;8.80;99.90
68051;DHT22;54839;51.364;7.246;2023-02-18T09:19:38;8.70;99.90
68051;DHT22;54839;51.364;7.246;2023-02-18T09:22:04;8.80;99.90
68051;DHT22;54839;51.364;7.246;2023-02-18T09:24:38;8.70;99.90
68051;DHT22;54839;51.364;7.246;2023-02-18T09:27:04;8.70;99.90
68051;DHT22;54839;51.364;7.246;2023-02-18T09:29:33;8.80;99.90
68051;DHT22;54839;51.364;7.246;2023-02-18T09:31:59;8.60;99.90
68051;DHT22;54839;51.364;7.246;2023-02-18T09:34:26;8.70;99.90
68051;DHT22;54839;51.364;7.246;2023-02-18T09:36:51;8.70;99.90
68051;DHT22;54839;51.364;7.246;2023-02-18T09:39:17;8.70;99.90
68051;DHT22;54839;51.364;7.246;2023-02-18T09:41:53;8.70;99.90
68051;DHT22;54839;51.364;7.246;2023-02-18T09:44:34;8.80;99.90
68051;DHT22;54839;51.364;7.246;2023-02-18T09:49:41;9.00;99.90
68051;DHT22;54839;51.364;7.246;2023-02-18T09:52:35;8.90;99.90
68051;DHT22;54839;51.364;7.246;2023-02-18T09:55:24;9.00;99.90
68051;DHT22;54839;51.364;7.246;2023-02-18T09:57:58;8.80;99.90
68051;DHT22;54839;51.364;7.246;2023-02-18T10:00:36;8.80;99.90
68051;DHT22;54839;51.364;7.246;2023-02-18T10:03:13;8.80;99.90
68051;DHT22;54839;51.364;7.246;2023-02-18T10:06:02;8.80;99.90
68051;DHT22;54839;51.364;7.246;2023-02-18T10:08:42;8.80;99.90
68051;DHT22;54839;51.364;7.246;2023-02-18T10:11:16;8.70;99.90
68051;DHT22;54839;51.364;7.246;2023-02-18T10:13:43;8.80;99.90
68051;DHT22;54839;51.364;7.246;2023-02-18T10:16:15;8.90;99.90
68051;DHT22;54839;51.364;7.246;2023-02-18T10:18:43;8.90;99.90
68051;DHT22;54839;51.364;7.246;2023-02-18T10:21:15;8.90;99.90
68051;DHT22;54839;51.364;7.246;2023-02-18T10:23:59;8.80;99.90
68051;DHT22;54839;51.364;7.246;2023-02-18T10:26:29;8.80;99.90
68051;DHT22;54839;51.364;7.246;2023-02-18T10:28:55;8.70;99.90
68051;DHT22;54839;51.364;7.246;2023-02-18T10:31:33;8.70;99.90
68051;DHT22;54839;51.364;7.246;2023-02-18T10:34:16;8.50;99.90
68051;DHT22;54839;51.364;7.246;2023-02-18T10:36:54;8.60;99.90
68051;DHT22;54839;51.364;7.246;2023-02-18T10:39:37;8.50;99.90
68051;DHT22;54839;51.364;7.246;2023-02-18T10:42:19;8.50;99.90
68051;DHT22;54839;51.364;7.246;2023-02-18T10:50:39;8.70;99.90
68051;DHT22;54839;51.364;7.246;2023-02-18T10:55:55;8.60;99.90
68051;DHT22;54839;51.364;7.246;2023-02-18T11:01:13;8.50;99.90
68051;DHT22;54839;51.364;7.246;2023-02-18T11:03:44;8.60;99.90
68051;DHT22;54839;51.364;7.246;2023-02-18T11:06:19;8.60;99.90
68051;DHT22;54839;51.364;7.246;2023-02-18T11:08:46;8.60;99.90
68051;DHT22;54839;51.364;7.246;2023-02-18T11:11:38;8.60;99.90
68051;DHT22;54839;51.364;7.246;2023-02-18T11:14:06;8.50;99.90
68051;DHT22;54839;51.364;7.246;2023-02-18T11:16:43;8.50;99.90
68051;DHT22;54839;51.364;7.246;2023-02-18T11:19:33;8.50;99.90
68051;DHT22;54839;51.364;7.246;2023-02-18T11:22:27;8.60;99.90
68051;DHT22;54839;51.364;7.246;2023-02-18T11:24:56;8.60;99.90
68051;DHT22;54839;51.364;7.246;2023-02-18T11:27:43;8.50;99.90
68051;DHT22;54839;51.364;7.246;2023-02-18T11:30:22;8.50;99.90
68051;DHT22;54839;51.364;7.246;2023-02-18T11:32:56;8.60;99.90
68051;DHT22;54839;51.364;7.246;2023-02-18T11:35:26;8.60;99.90
68051;DHT22;54839;51.364;7.246;2023-02-18T11:37:53;8.60;99.90
68051;DHT22;54839;51.364;7.246;2023-02-18T11:40:27;8.70;99.90
68051;DHT22;54839;51.364;7.246;2023-02-18T11:43:03;8.70;99.90
68051;DHT22;54839;51.364;7.246;2023-02-18T11:45:31;8.70;99.90
68051;DHT22;54839;51.364;7.246;2023-02-18T11:48:18;8.60;99.90
68051;DHT22;54839;51.364;7.246;2023-02-18T11:50:45;8.80;99.90
68051;DHT22;54839;51.364;7.246;2023-02-18T11:53:36;8.80;99.90
68051;DHT22;54839;51.364;7.246;2023-02-18T11:56:05;8.80;99.90
68051;DHT22;54839;51.364;7.246;2023-02-18T11:58:43;8.80;99.90
68051;DHT22;54839;51.364;7.246;2023-02-18T12:01:14;8.70;99.90
68051;DHT22;54839;51.364;7.246;2023-02-18T12:03:51;8.70;99.90
68051;DHT22;54839;51.364;7.246;2023-02-18T12:06:23;8.70;99.90
68051;DHT22;54839;51.364;7.246;2023-02-18T12:08:55;8.70;99.90
68051;DHT22;54839;51.364;7.246;2023-02-18T12:11:33;8.70;99.90
68051;DHT22;54839;51.364;7.246;2023-02-18T12:14:00;8.70;99.90
68051;DHT22;54839;51.364;7.246;2023-02-18T12:19:36;8.80;99.90
68051;DHT22;54839;51.364;7.246;2023-02-18T12:33:16;8.90;99.90
68051;DHT22;54839;51.364;7.246;2023-02-18T12:35:59;8.90;99.90
68051;DHT22;54839;51.364;7.246;2023-02-18T12:46:56;8.90;99.90
68051;DHT22;54839;51.364;7.246;2023-02-18T12:52:07;8.90;99.90
68051;DHT22;54839;51.364;7.246;2023-02-18T12:57:42;8.90;99.90
68051;DHT22;54839;51.364;7.246;2023-02-18T13:03:50;8.90;99.90
68051;DHT22;54839;51.364;7.246;2023-02-18T13:09:42;9.00;99.90
68051;DHT22;54839;51.364;7.246;2023-02-18T13:12:22;8.90;99.90
68051;DHT22;54839;51.364;7.246;2023-02-18T13:15:01;8.90;99.90
68051;DHT22;54839;51.364;7.246;2023-02-18T13:17:33;8.90;99.90
68051;DHT22;54839;51.364;7.246;2023-02-18T13:20:03;9.00;99.90
68051;DHT22;54839;51.364;7.246;2023-02-18T13:22:32;9.00;99.90
68051;DHT22;54839;51.364;7.246;2023-02-18T13:24:58;9.20;99.90
68051;DHT22;54839;51.364;7.246;2023-02-18T13:27:42;9.00;99.90
68051;DHT22;54839;51.364;7.246;2023-02-18T13:30:47;9.20;99.90
68051;DHT22;54839;51.364;7.246;2023-02-18T13:38:45;9.10;99.90
68051;DHT22;54839;51.364;7.246;2023-02-18T13:41:12;9.10;99.90
68051;DHT22;54839;51.364;7.246;2023-02-18T13:43:38;9.10;99.90
68051;DHT22;54839;51.364;7.246;2023-02-18T13:46:13;9.10;99.90
68051;DHT22;54839;51.364;7.246;2023-02-18T13:51:17;9.10;99.90
68051;DHT22;54839;51.364;7.246;2023-02-18T13:54:00;9.10;99.90
68051;DHT22;54839;51.364;7.246;2023-02-18T13:56:29;9.10;99.90
68051;DHT22;54839;51.364;7.246;2023-02-18T13:59:55;9.10;99.90
68051;DHT22;54839;51.364;7.246;2023-02-18T14:01:53;9.10;99.90
68051;DHT22;54839;51.364;7.246;2023-02-18T14:09:52;9.10;99.90
68051;DHT22;54839;51.364;7.246;2023-02-18T14:12:26;9.10;99.90
68051;DHT22;54839;51.364;7.246;2023-02-18T14:14:59;9.10;99.90
68051;DHT22;54839;51.364;7.246;2023-02-18T14:17:29;9.10;99.90
68051;DHT22;54839;51.364;7.246;2023-02-18T14:27:37;9.30;99.90
68051;DHT22;54839;51.364;7.246;2023-02-18T14:30:14;9.00;99.90
68051;DHT22;54839;51.364;7.246;2023-02-18T14:32:40;9.10;99.90
68051;DHT22;54839;51.364;7.246;2023-02-18T14:35:34;9.10;99.90
68051;DHT22;54839;51.364;7.246;2023-02-18T14:38:23;9.10;99.90
68051;DHT22;54839;51.364;7.246;2023-02-18T14:50:10;9.30;99.90
68051;DHT22;54839;51.364;7.246;2023-02-18T14:52:58;9.30;99.90
68051;DHT22;54839;51.364;7.246;2023-02-18T14:55:39;9.30;99.90
68051;DHT22;54839;51.364;7.246;2023-02-18T14:58:25;9.30;99.90
68051;DHT22;54839;51.364;7.246;2023-02-18T15:00:52;9.30;99.90
68051;DHT22;54839;51.364;7.246;2023-02-18T15:03:19;9.30;99.90
68051;DHT22;54839;51.364;7.246;2023-02-18T15:05:48;9.30;99.90
68051;DHT22;54839;51.364;7.246;2023-02-18T15:10:43;9.40;99.90
68051;DHT22;54839;51.364;7.246;2023-02-18T15:13:28;9.50;99.90
68051;DHT22;54839;51.364;7.246;2023-02-18T15:16:00;9.40;99.90
68051;DHT22;54839;51.364;7.246;2023-02-18T15:18:42;9.40;99.90
68051;DHT22;54839;51.364;7.246;2023-02-18T15:21:29;9.50;99.90
68051;DHT22;54839;51.364;7.246;2023-02-18T15:23:58;9.40;99.90
68051;DHT22;54839;51.364;7.246;2023-02-18T15:26:26;9.50;99.90
68051;DHT22;54839;51.364;7.246;2023-02-18T15:29:04;9.40;99.90
68051;DHT22;54839;51.364;7.246;2023-02-18T15:31:35;9.40;99.90
68051;DHT22;54839;51.364;7.246;2023-02-18T15:34:02;9.30;99.90
68051;DHT22;54839;51.364;7.246;2023-02-18T15:36:30;9.40;99.90
68051;DHT22;54839;51.364;7.246;2023-02-18T15:38:56;9.30;99.90
68051;DHT22;54839;51.364;7.246;2023-02-18T15:41:22;9.30;99.90
68051;DHT22;54839;51.364;7.246;2023-02-18T15:44:00;9.40;99.90
68051;DHT22;54839;51.364;7.246;2023-02-18T15:46:27;9.30;99.90
68051;DHT22;54839;51.364;7.246;2023-02-18T15:48:53;9.30;99.90
68051;DHT22;54839;51.364;7.246;2023-02-18T15:51:24;9.40;99.90
68051;DHT22;54839;51.364;7.246;2023-02-18T15:53:52;9.30;99.90
68051;DHT22;54839;51.364;7.246;2023-02-18T15:56:34;9.30;99.90
68051;DHT22;54839;51.364;7.246;2023-02-18T15:59:17;9.30;99.90
68051;DHT22;54839;51.364;7.246;2023-02-18T16:02:29;9.30;99.90
68051;DHT22;54839;51.364;7.246;2023-02-18T16:04:40;9.30;99.90
68051;DHT22;54839;51.364;7.246;2023-02-18T16:07:24;9.30;99.90
68051;DHT22;54839;51.364;7.246;2023-02-18T16:09:56;9.40;99.90
68051;DHT22;54839;51.364;7.246;2023-02-18T16:12:28;9.30;99.90
68051;DHT22;54839;51.364;7.246;2023-02-18T16:14:56;9.30;99.90
68051;DHT22;54839;51.364;7.246;2023-02-18T16:17:25;9.30;99.90
68051;DHT22;54839;51.364;7.246;2023-02-18T16:20:00;9.30;99.90
68051;DHT22;54839;51.364;7.246;2023-02-18T16:28:09;9.40;99.90
68051;DHT22;54839;51.364;7.246;2023-02-18T16:30:35;9.40;99.90
68051;DHT22;54839;51.364;7.246;2023-02-18T16:33:01;9.40;99.90
68051;DHT22;54839;51.364;7.246;2023-02-18T16:35:29;9.40;99.90
68051;DHT22;54839;51.364;7.246;2023-02-18T16:37:55;9.40;99.90
68051;DHT22;54839;51.364;7.246;2023-02-18T16:40:37;9.30;99.90
68051;DHT22;54839;51.364;7.246;2023-02-18T16:43:15;9.40;99.90
68051;DHT22;54839;51.364;7.246;2023-02-18T16:45:47;9.30;99.90
68051;DHT22;54839;51.364;7.246;2023-02-18T16:50:42;9.40;99.90
68051;DHT22;54839;51.364;7.246;2023-02-18T16:53:09;9.40;99.90
68051;DHT22;54839;51.364;7.246;2023-02-18T16:55:36;9.30;99.90
68051;DHT22;54839;51.364;7.246;2023-02-18T16:58:01;9.50;99.90
68051;DHT22;54839;51.364;7.246;2023-02-18T17:00:27;9.40;99.90
68051;DHT22;54839;51.364;7.246;2023-02-18T17:02:55;9.50;99.90
68051;DHT22;54839;51.364;7.246;2023-02-18T17:05:26;9.50;99.90
68051;DHT22;54839;51.364;7.246;2023-02-18T17:07:53;9.50;99.90
68051;DHT22;54839;51.364;7.246;2023-02-18T17:10:18;9.40;99.90
68051;DHT22;54839;51.364;7.246;2023-02-18T17:12:44;9.50;99.90
68051;DHT22;54839;51.364;7.246;2023-02-18T17:15:32;9.40;99.90
68051;DHT22;54839;51.364;7.246;2023-02-18T17:17:58;9.50;99.90
68051;DHT22;54839;51.364;7.246;2023-02-18T17:20:28;9.40;99.90
68051;DHT22;54839;51.364;7.246;2023-02-18T17:22:55;9.40;99.90
68051;DHT22;54839;51.364;7.246;2023-02-18T17:25:43;9.50;99.90
68051;DHT22;54839;51.364;7.246;2023-02-18T17:28:08;9.50;99.90
68051;DHT22;54839;51.364;7.246;2023-02-18T17:30:38;9.50;99.90
68051;DHT22;54839;51.364;7.246;2023-02-18T17:33:05;9.50;99.90
68051;DHT22;54839;51.364;7.246;2023-02-18T17:35:31;9.50;99.90
68051;DHT22;54839;51.364;7.246;2023-02-18T17:37:57;9.60;99.90
68051;DHT22;54839;51.364;7.246;2023-02-18T17:40:25;9.50;99.90
68051;DHT22;54839;51.364;7.246;2023-02-18T17:42:53;9.60;99.90
68051;DHT22;54839;51.364;7.246;2023-02-18T17:45:26;9.60;99.90
68051;DHT22;54839;51.364;7.246;2023-02-18T17:47:56;9.60;99.90
68051;DHT22;54839;51.364;7.246;2023-02-18T17:50:23;9.60;99.90
68051;DHT22;54839;51.364;7.246;2023-02-18T17:52:48;9.60;99.90
68051;DHT22;54839;51.364;7.246;2023-02-18T17:55:22;9.50;99.90
68051;DHT22;54839;51.364;7.246;2023-02-18T17:57:49;9.50;99.90
68051;DHT22;54839;51.364;7.246;2023-02-18T18:00:30;9.60;99.90
68051;DHT22;54839;51.364;7.246;2023-02-18T18:02:56;9.60;99.90
68051;DHT22;54839;51.364;7.246;2023-02-18T18:05:28;9.50;99.90